createdAt,value
2018-07-26T00:00:33.526Z,5.00
2018-07-26T00:03:17.231Z,4.00
2018-07-26T00:06:00.886Z,5.20
2018-07-26T00:08:44.614Z,5.60
2018-07-26T00:11:28.291Z,5.00
2018-07-26T00:14:11.926Z,6.00
2018-07-26T00:16:55.537Z,5.00
2018-07-26T00:19:39.227Z,5.60
2018-07-26T00:22:22.859Z,5.00
2018-07-26T00:25:07.130Z,4.20
2018-07-26T00:27:50.718Z,5.00
2018-07-26T00:30:34.451Z,5.50
2018-07-26T00:33:18.098Z,6.00
2018-07-26T00:36:01.770Z,5.00
2018-07-26T00:38:45.426Z,5.20
2018-07-26T00:41:29.007Z,4.25
2018-07-26T00:44:12.718Z,4.60
2018-07-26T00:46:56.354Z,5.25
2018-07-26T00:49:40.160Z,4.80
2018-07-26T00:52:23.824Z,6.00
2018-07-26T00:55:08.058Z,4.80
2018-07-26T00:57:51.700Z,5.60
2018-07-26T01:00:35.363Z,6.00
2018-07-26T01:03:19.006Z,5.60
2018-07-26T01:06:02.591Z,5.60
2018-07-26T01:08:46.290Z,5.60
2018-07-26T01:11:29.903Z,6.00
2018-07-26T01:14:13.496Z,4.80
2018-07-26T01:16:57.238Z,6.00
2018-07-26T01:19:40.907Z,5.00
2018-07-26T01:22:24.622Z,5.00
2018-07-26T01:25:08.384Z,5.80
2018-07-26T01:27:52.146Z,6.00
2018-07-26T01:30:35.965Z,5.75
2018-07-26T01:33:19.747Z,5.00
2018-07-26T01:36:03.411Z,4.00
2018-07-26T01:38:47.022Z,5.00
2018-07-26T01:41:30.706Z,6.00
2018-07-26T01:44:19.796Z,6.00
2018-07-26T01:47:03.419Z,5.00
2018-07-26T01:49:47.062Z,5.00
2018-07-26T01:52:30.723Z,5.40
2018-07-26T01:55:14.354Z,6.00
2018-07-26T01:57:57.953Z,6.00
2018-07-26T02:00:41.638Z,6.00
2018-07-26T02:03:25.422Z,5.20
2018-07-26T02:06:09.531Z,6.00
2018-07-26T02:08:53.218Z,5.00
2018-07-26T02:11:36.870Z,5.00
2018-07-26T02:14:25.761Z,6.00
2018-07-26T02:17:09.430Z,6.00
2018-07-26T02:19:53.103Z,7.00
2018-07-26T02:22:36.925Z,5.00
2018-07-26T02:25:20.607Z,6.20
2018-07-26T02:28:04.371Z,6.20
2018-07-26T02:30:48.039Z,5.75
2018-07-26T02:33:31.680Z,5.60
2018-07-26T02:36:15.335Z,5.50
2018-07-26T02:38:58.992Z,5.60
2018-07-26T02:41:42.630Z,5.00
2018-07-26T02:44:26.306Z,5.00
2018-07-26T02:47:09.959Z,6.00
2018-07-26T02:49:53.612Z,6.00
2018-07-26T02:52:38.071Z,6.50
2018-07-26T02:55:21.795Z,5.80
2018-07-26T02:58:05.472Z,7.00
2018-07-26T03:00:49.128Z,5.50
2018-07-26T03:03:32.777Z,6.60
2018-07-26T03:06:16.457Z,7.00
2018-07-26T03:09:00.084Z,6.60
2018-07-26T03:11:43.744Z,7.00
2018-07-26T03:14:31.527Z,7.20
2018-07-26T03:17:16.031Z,6.50
2018-07-26T03:19:59.734Z,7.00
2018-07-26T03:22:43.394Z,8.00
2018-07-26T03:25:27.006Z,7.75
2018-07-26T03:28:10.606Z,7.40
2018-07-26T03:30:54.273Z,8.00
2018-07-26T03:33:37.952Z,7.00
2018-07-26T03:36:21.639Z,6.00
2018-07-26T03:39:07.690Z,7.80
2018-07-26T03:41:51.367Z,7.25
2018-07-26T03:44:34.966Z,6.60
2018-07-26T03:47:18.754Z,7.00
2018-07-26T03:50:05.770Z,8.00
2018-07-26T03:52:49.531Z,8.40
2018-07-26T03:55:33.099Z,9.00
2018-07-26T03:58:16.727Z,10.40
2018-07-26T04:01:00.459Z,7.75
2018-07-26T04:03:44.212Z,8.40
2018-07-26T04:06:27.961Z,7.80
2018-07-26T04:09:13.322Z,9.00
2018-07-26T04:11:56.978Z,9.75
2018-07-26T04:14:40.670Z,8.20
2018-07-26T04:17:24.381Z,8.00
2018-07-26T04:20:08.121Z,9.00
2018-07-26T04:22:51.804Z,8.00
2018-07-26T04:25:35.482Z,10.00
2018-07-26T04:28:19.150Z,8.00
2018-07-26T04:31:02.918Z,9.00
2018-07-26T04:33:46.660Z,9.40
2018-07-26T04:36:30.374Z,8.00
2018-07-26T04:39:14.513Z,8.20
2018-07-26T04:41:58.261Z,9.50
2018-07-26T04:44:41.930Z,8.60
2018-07-26T04:47:25.609Z,8.75
2018-07-26T04:50:09.934Z,9.00
2018-07-26T04:52:53.707Z,8.40
2018-07-26T04:55:37.278Z,10.25
2018-07-26T04:58:20.947Z,9.20
2018-07-26T05:01:04.688Z,9.40
2018-07-26T05:03:48.377Z,9.00
2018-07-26T05:06:32.198Z,10.00
2018-07-26T05:09:15.894Z,10.80
2018-07-26T05:11:59.539Z,10.00
2018-07-26T05:14:43.229Z,12.80
2018-07-26T05:17:26.904Z,10.80
2018-07-26T05:20:10.554Z,11.20
2018-07-26T05:22:54.186Z,10.20
2018-07-26T05:25:37.814Z,9.00
2018-07-26T05:28:21.434Z,11.40
2018-07-26T05:31:05.094Z,11.00
2018-07-26T05:33:48.720Z,11.00
2018-07-26T05:36:32.391Z,10.75
2018-07-26T05:39:16.116Z,11.00
2018-07-26T05:41:59.740Z,10.40
2018-07-26T05:44:43.377Z,10.80
2018-07-26T05:47:27.050Z,11.00
2018-07-26T05:50:10.762Z,11.40
2018-07-26T05:52:54.390Z,11.20
2018-07-26T05:55:38.059Z,10.00
2018-07-26T05:58:21.709Z,11.60
2018-07-26T06:01:05.351Z,11.25
2018-07-26T06:03:49.019Z,12.40
2018-07-26T06:06:32.677Z,10.20
2018-07-26T06:09:16.314Z,11.80
2018-07-26T06:11:59.950Z,12.50
2018-07-26T06:14:43.672Z,10.80
2018-07-26T06:17:27.290Z,12.00
2018-07-26T06:20:12.499Z,12.60
2018-07-26T06:22:56.172Z,14.00
2018-07-26T06:25:39.786Z,11.80
2018-07-26T06:28:23.496Z,11.00
2018-07-26T06:31:07.318Z,11.25
2018-07-26T06:33:51.000Z,11.00
2018-07-26T06:36:34.654Z,10.50
2018-07-26T06:39:18.261Z,9.00
2018-07-26T06:42:01.999Z,10.20
2018-07-26T06:44:45.694Z,8.80
2018-07-26T06:47:29.298Z,10.00
2018-07-26T06:50:13.104Z,8.00
2018-07-26T06:52:56.746Z,9.80
2018-07-26T06:55:40.366Z,9.00
2018-07-26T06:58:23.975Z,9.00
2018-07-26T07:01:07.642Z,10.80
2018-07-26T07:03:51.250Z,8.40
2018-07-26T07:06:34.994Z,9.20
2018-07-26T07:09:18.788Z,10.00
2018-07-26T07:12:02.396Z,9.00
2018-07-26T07:14:46.005Z,9.60
2018-07-26T07:17:29.684Z,9.00
2018-07-26T07:20:13.989Z,8.25
2018-07-26T07:22:57.662Z,9.80
2018-07-26T07:25:41.263Z,8.00
2018-07-26T07:28:24.895Z,7.20
2018-07-26T07:31:08.566Z,9.00
2018-07-26T07:33:52.179Z,8.00
2018-07-26T07:36:35.873Z,8.00
2018-07-26T07:39:19.562Z,6.80
2018-07-26T07:42:03.282Z,6.00
2018-07-26T07:44:46.957Z,7.60
2018-07-26T07:47:30.797Z,8.00
2018-07-26T07:50:14.475Z,7.60
2018-07-26T07:52:58.164Z,8.40
2018-07-26T07:55:41.843Z,8.00
2018-07-26T07:58:25.561Z,7.40
2018-07-26T08:01:09.283Z,7.00
2018-07-26T08:03:52.931Z,8.40
2018-07-26T08:06:36.593Z,7.50
2018-07-26T08:09:20.293Z,8.00
2018-07-26T08:12:04.045Z,7.25
2018-07-26T08:14:47.782Z,6.40
2018-07-26T08:17:31.532Z,7.50
2018-07-26T08:20:15.219Z,8.00
2018-07-26T08:22:58.950Z,8.00
2018-07-26T08:25:42.644Z,7.75
2018-07-26T08:28:26.308Z,7.80
2018-07-26T08:31:09.906Z,7.20
2018-07-26T08:33:53.670Z,7.60
2018-07-26T08:36:37.383Z,7.00
2018-07-26T08:39:21.058Z,7.60
2018-07-26T08:42:04.753Z,6.00
2018-07-26T08:44:48.655Z,7.20
2018-07-26T08:47:32.281Z,7.00
2018-07-26T08:50:16.058Z,8.00
2018-07-26T08:52:59.769Z,6.00
2018-07-26T08:55:43.477Z,7.50
2018-07-26T08:58:27.136Z,8.00
2018-07-26T09:01:10.820Z,7.00
2018-07-26T09:03:54.567Z,8.00
2018-07-26T09:06:38.183Z,7.25
2018-07-26T09:09:21.979Z,7.00
2018-07-26T09:12:05.742Z,7.00
2018-07-26T09:14:49.454Z,8.40
2018-07-26T09:17:33.091Z,7.20
2018-07-26T09:20:16.850Z,7.00
2018-07-26T09:23:00.670Z,9.00
2018-07-26T09:25:44.403Z,6.25
2018-07-26T09:28:28.094Z,7.40
2018-07-26T09:31:11.719Z,7.50
2018-07-26T09:33:55.421Z,8.00
2018-07-26T09:36:39.057Z,7.20
2018-07-26T09:39:22.793Z,7.20
2018-07-26T09:42:06.912Z,8.25
2018-07-26T09:44:50.606Z,7.60
2018-07-26T09:47:34.226Z,6.00
2018-07-26T09:50:17.928Z,8.00
2018-07-26T09:53:01.642Z,7.40
2018-07-26T09:55:45.310Z,7.00
2018-07-26T09:58:28.946Z,7.40
2018-07-26T10:01:17.848Z,7.00
2018-07-26T10:04:01.634Z,7.20
2018-07-26T10:06:45.257Z,7.00
2018-07-26T10:09:28.947Z,6.80
2018-07-26T10:12:12.808Z,6.75
2018-07-26T10:14:56.490Z,6.40
2018-07-26T10:17:40.146Z,5.00
2018-07-26T10:20:23.838Z,6.40
2018-07-26T10:23:07.559Z,7.20
2018-07-26T10:25:51.285Z,6.25
2018-07-26T10:28:34.983Z,6.00
2018-07-26T10:31:18.686Z,6.20
2018-07-26T10:34:04.699Z,6.80
2018-07-26T10:36:48.371Z,6.00
2018-07-26T10:39:32.140Z,6.40
2018-07-26T10:42:15.872Z,5.60
2018-07-26T10:44:59.602Z,6.00
2018-07-26T10:47:43.259Z,6.00
2018-07-26T10:50:26.991Z,6.00
2018-07-26T10:53:10.899Z,6.00
2018-07-26T10:55:54.603Z,6.75
2018-07-26T10:58:38.202Z,6.40
2018-07-26T11:01:21.915Z,5.20
2018-07-26T11:04:05.590Z,5.80
2018-07-26T11:06:49.246Z,6.00
2018-07-26T11:09:33.090Z,6.80
2018-07-26T11:12:16.707Z,6.60
2018-07-26T11:15:13.328Z,6.00
2018-07-26T11:17:56.975Z,7.00
2018-07-26T11:20:40.755Z,6.00
2018-07-26T11:23:24.539Z,5.80
2018-07-26T11:26:08.341Z,6.00
2018-07-26T11:28:52.085Z,5.00
2018-07-26T11:31:35.754Z,6.80
2018-07-26T11:34:19.524Z,5.40
2018-07-26T11:37:03.303Z,5.00
2018-07-26T11:39:46.995Z,5.20
2018-07-26T11:42:30.731Z,5.80
2018-07-26T11:45:14.323Z,6.75
2018-07-26T11:47:57.966Z,5.20
2018-07-26T11:50:41.694Z,5.00
2018-07-26T11:53:25.359Z,5.00
2018-07-26T11:56:09.019Z,5.50
2018-07-26T11:58:52.698Z,5.60
2018-07-26T12:01:36.456Z,5.00
2018-07-26T12:04:20.126Z,5.40
2018-07-26T12:07:04.274Z,5.00
2018-07-26T12:09:47.980Z,5.00
2018-07-26T12:12:31.653Z,5.00
2018-07-26T12:15:15.313Z,5.00
2018-07-26T12:17:58.987Z,5.00
2018-07-26T12:20:42.710Z,4.60
2018-07-26T12:23:26.362Z,5.60
2018-07-26T12:26:10.001Z,5.75
2018-07-26T12:28:53.607Z,6.00
2018-07-26T12:31:37.252Z,6.00
2018-07-26T12:34:20.934Z,5.80
2018-07-26T12:37:04.651Z,5.00
2018-07-26T12:39:48.387Z,5.40
2018-07-26T12:42:32.027Z,5.00
2018-07-26T12:45:15.756Z,5.00
2018-07-26T12:47:59.431Z,5.20
2018-07-26T12:50:43.115Z,3.50
2018-07-26T12:53:26.928Z,5.80
2018-07-26T12:56:10.849Z,5.00
2018-07-26T12:58:54.601Z,5.00
2018-07-26T13:01:38.370Z,5.00
2018-07-26T13:04:22.042Z,5.00
2018-07-26T13:07:05.962Z,5.00
2018-07-26T13:09:49.593Z,4.80
2018-07-26T13:12:33.240Z,5.00
2018-07-26T13:15:16.881Z,5.00
2018-07-26T13:18:01.103Z,5.00
2018-07-26T13:20:45.015Z,4.00
2018-07-26T13:23:28.666Z,4.00
2018-07-26T13:26:12.390Z,4.50
2018-07-26T13:28:56.050Z,4.80
2018-07-26T13:31:39.692Z,4.20
2018-07-26T13:34:23.348Z,5.00
2018-07-26T13:37:07.015Z,4.25
2018-07-26T13:39:50.713Z,4.20
2018-07-26T13:42:34.399Z,5.00
2018-07-26T13:45:18.462Z,4.75
2018-07-26T13:48:02.094Z,4.00
2018-07-26T13:50:45.719Z,4.00
2018-07-26T13:53:29.376Z,4.20
2018-07-26T13:56:13.011Z,5.00
2018-07-26T13:58:56.757Z,5.20
2018-07-26T14:01:40.499Z,4.00
2018-07-26T14:04:24.130Z,4.40
2018-07-26T14:07:07.757Z,4.20
2018-07-26T14:09:51.475Z,4.80
2018-07-26T14:12:35.138Z,4.40
2018-07-26T14:15:18.846Z,4.80
2018-07-26T14:18:02.408Z,4.00
2018-07-26T14:20:46.097Z,4.50
2018-07-26T14:23:35.146Z,4.00
2018-07-26T14:26:18.833Z,4.00
2018-07-26T14:29:02.465Z,4.00
2018-07-26T14:31:46.111Z,4.00
2018-07-26T14:34:30.851Z,5.00
2018-07-26T14:37:14.686Z,4.50
2018-07-26T14:39:58.724Z,4.00
2018-07-26T14:42:42.532Z,3.50
2018-07-26T14:45:26.260Z,4.00
2018-07-26T14:48:10.015Z,4.00
2018-07-26T14:50:53.596Z,3.40
2018-07-26T14:53:37.366Z,4.00
2018-07-26T14:56:21.054Z,4.00
2018-07-26T14:59:04.724Z,3.80
2018-07-26T15:01:48.349Z,3.75
2018-07-26T15:04:32.174Z,4.00
2018-07-26T15:07:15.834Z,4.00
2018-07-26T15:09:59.510Z,3.20
2018-07-26T15:12:43.179Z,4.00
2018-07-26T15:15:26.871Z,4.00
2018-07-26T15:18:10.788Z,4.00
2018-07-26T15:20:54.550Z,4.25
2018-07-26T15:23:38.203Z,4.00
2018-07-26T15:26:21.863Z,3.80
2018-07-26T15:29:05.554Z,3.40
2018-07-26T15:31:49.411Z,2.50
2018-07-26T15:34:33.093Z,3.25
2018-07-26T15:37:16.991Z,3.00
2018-07-26T15:40:04.996Z,2.80
2018-07-26T15:42:48.945Z,3.80
2018-07-26T15:45:32.782Z,4.00
2018-07-26T15:48:16.489Z,2.80
2018-07-26T15:51:00.397Z,4.00
2018-07-26T15:53:44.430Z,2.80
2018-07-26T15:56:48.229Z,2.80
2018-07-26T15:59:52.295Z,4.00
2018-07-26T16:02:56.057Z,3.80
2018-07-26T16:05:59.766Z,6.60
2018-07-26T16:09:02.257Z,6.40
2018-07-26T16:12:04.593Z,6.00
2018-07-26T16:15:08.728Z,6.00
2018-07-26T16:18:11.315Z,5.00
2018-07-26T16:21:13.639Z,5.00
2018-07-26T16:24:16.134Z,5.80
2018-07-26T16:27:18.482Z,5.00
2018-07-26T16:30:20.834Z,5.40
2018-07-26T16:33:23.308Z,5.80
2018-07-26T16:36:25.695Z,5.80
2018-07-26T16:39:28.234Z,5.40
2018-07-26T16:42:31.268Z,5.20
2018-07-26T16:45:33.814Z,3.80
2018-07-26T16:48:36.825Z,5.20
2018-07-26T16:51:39.906Z,17.60
2018-07-26T16:54:42.419Z,14.40
2018-07-26T16:57:44.801Z,13.20
2018-07-26T17:00:47.273Z,12.20
2018-07-26T17:03:49.754Z,10.00
2018-07-26T17:06:52.254Z,11.40
2018-07-26T17:09:56.095Z,10.80
2018-07-26T17:12:58.612Z,10.80
2018-07-26T17:16:01.114Z,10.00
2018-07-26T17:19:03.780Z,8.60
2018-07-26T17:22:06.574Z,8.75
2018-07-26T17:25:09.155Z,8.00
2018-07-26T17:28:11.513Z,7.80
2018-07-26T17:31:14.069Z,7.80
2018-07-26T17:34:16.673Z,7.80
2018-07-26T17:37:19.400Z,6.40
2018-07-26T17:40:22.165Z,5.80
2018-07-26T17:43:24.597Z,6.60
2018-07-26T17:46:27.090Z,6.60
2018-07-26T17:49:29.442Z,5.80
2018-07-26T17:52:31.958Z,5.80
2018-07-26T17:55:14.362Z,6.00
2018-07-26T17:57:57.455Z,6.00
2018-07-26T18:00:40.036Z,5.40
2018-07-26T18:03:22.475Z,5.40
2018-07-26T18:06:05.072Z,5.00
2018-07-26T18:08:47.553Z,4.20
2018-07-26T18:11:29.951Z,5.20
2018-07-26T18:14:12.539Z,4.60
2018-07-26T18:16:54.966Z,5.80
2018-07-26T18:19:37.448Z,4.80
2018-07-26T18:22:19.869Z,5.60
2018-07-26T18:25:05.511Z,5.20
2018-07-26T18:27:47.959Z,4.00
2018-07-26T18:30:30.575Z,5.40
2018-07-26T18:33:12.938Z,4.20
2018-07-26T18:35:55.373Z,4.80
2018-07-26T18:38:37.717Z,4.00
2018-07-26T18:41:20.133Z,4.80
2018-07-26T18:44:02.755Z,4.40
2018-07-26T18:46:45.124Z,4.60
2018-07-26T18:49:27.533Z,4.40
2018-07-26T18:52:09.989Z,4.80
2018-07-26T18:54:52.384Z,4.80
2018-07-26T18:57:35.596Z,4.50
2018-07-26T19:00:18.116Z,4.80
2018-07-26T19:03:00.859Z,4.80
2018-07-26T19:05:43.339Z,5.00
2018-07-26T19:08:26.295Z,3.60
2018-07-26T19:11:09.540Z,3.80
2018-07-26T19:13:52.090Z,3.60
2018-07-26T19:16:34.889Z,3.20
2018-07-26T19:19:17.931Z,3.60
2018-07-26T19:22:01.099Z,4.00
2018-07-26T19:24:43.596Z,4.60
2018-07-26T19:27:26.235Z,4.40
2018-07-26T19:30:11.656Z,4.00
2018-07-26T19:32:54.003Z,4.80
2018-07-26T19:35:36.492Z,4.20
2018-07-26T19:38:19.732Z,4.60
2018-07-26T19:41:02.214Z,4.00
2018-07-26T19:43:44.839Z,4.00
2018-07-26T19:46:27.561Z,4.20
2018-07-26T19:49:09.918Z,5.40
2018-07-26T19:51:52.372Z,4.00
2018-07-26T19:54:34.764Z,5.40
2018-07-26T19:57:17.152Z,3.80
2018-07-26T19:59:59.508Z,5.20
2018-07-26T20:02:41.900Z,4.80
2018-07-26T20:05:24.562Z,7.00
2018-07-26T20:08:07.285Z,6.80
2018-07-26T20:10:49.881Z,7.80
2018-07-26T20:13:32.272Z,7.40
2018-07-26T20:16:14.788Z,8.40
2018-07-26T20:18:57.197Z,8.00
2018-07-26T20:21:39.590Z,9.00
2018-07-26T20:24:22.024Z,8.80
2018-07-26T20:27:04.374Z,8.00
2018-07-26T20:29:46.713Z,9.80
2018-07-26T20:32:29.237Z,9.40
2018-07-26T20:35:11.620Z,8.80
2018-07-26T20:37:53.985Z,7.80
2018-07-26T20:40:37.024Z,8.80
2018-07-26T20:43:20.047Z,10.60
2018-07-26T20:46:02.598Z,10.00
2018-07-26T20:48:45.427Z,9.20
2018-07-26T20:51:27.763Z,10.60
2018-07-26T20:54:10.359Z,9.60
2018-07-26T20:56:52.682Z,10.20
2018-07-26T20:59:35.086Z,10.80
2018-07-26T21:02:17.722Z,10.00
2018-07-26T21:05:00.107Z,10.80
2018-07-26T21:07:42.464Z,9.80
2018-07-26T21:10:25.049Z,10.80
2018-07-26T21:13:07.461Z,10.20
2018-07-26T21:15:50.113Z,9.80
2018-07-26T21:18:32.512Z,11.00
2018-07-26T21:21:15.178Z,10.00
2018-07-26T21:23:57.570Z,10.00
2018-07-26T21:26:39.955Z,10.00
2018-07-26T21:29:22.289Z,10.60
2018-07-26T21:32:04.901Z,10.80
2018-07-26T21:34:47.289Z,10.20
2018-07-26T21:37:29.733Z,10.00
2018-07-26T21:40:12.077Z,10.60
2018-07-26T21:42:54.512Z,9.80
2018-07-26T21:45:36.854Z,10.60
2018-07-26T21:48:19.262Z,10.60
2018-07-26T21:51:01.704Z,10.20
2018-07-26T21:53:44.405Z,11.40
2018-07-26T21:56:26.878Z,11.20
2018-07-26T21:59:09.238Z,11.00
2018-07-26T22:01:51.581Z,11.80
2018-07-26T22:04:34.046Z,11.20
2018-07-26T22:07:16.836Z,10.00
2018-07-26T22:09:59.258Z,10.00
2018-07-26T22:12:41.593Z,10.20
2018-07-26T22:15:23.951Z,9.40
2018-07-26T22:18:06.327Z,10.80
2018-07-26T22:20:48.855Z,11.40
2018-07-26T22:23:32.043Z,10.80
2018-07-26T22:26:14.467Z,10.60
2018-07-26T22:28:57.028Z,10.20
2018-07-26T22:31:39.675Z,10.80
2018-07-26T22:34:22.094Z,12.00
2018-07-26T22:37:04.589Z,11.60
2018-07-26T22:39:46.966Z,11.40
2018-07-26T22:42:29.400Z,11.00
2018-07-26T22:45:11.893Z,10.80
2018-07-26T22:47:54.468Z,11.20
2018-07-26T22:50:37.081Z,11.80
2018-07-26T22:53:19.505Z,10.60
2018-07-26T22:56:01.902Z,9.20
2018-07-26T22:58:44.441Z,12.40
2018-07-26T23:01:26.822Z,10.80
2018-07-26T23:04:09.646Z,11.00
2018-07-26T23:06:51.937Z,11.20
2018-07-26T23:09:34.389Z,11.00
2018-07-26T23:12:16.723Z,10.40
2018-07-26T23:14:59.173Z,11.60
2018-07-26T23:17:41.833Z,11.60
2018-07-26T23:20:24.175Z,11.40
2018-07-26T23:23:06.568Z,10.80
2018-07-26T23:25:48.962Z,10.80
2018-07-26T23:28:31.363Z,11.80
2018-07-26T23:31:14.212Z,10.80
2018-07-26T23:33:56.528Z,12.60
2018-07-26T23:36:39.646Z,10.60
2018-07-26T23:39:22.068Z,11.80
2018-07-26T23:42:04.423Z,13.00
2018-07-26T23:44:46.854Z,11.80
2018-07-26T23:47:29.142Z,12.20
2018-07-26T23:50:11.551Z,12.00
2018-07-26T23:52:54.005Z,11.80
2018-07-26T23:55:36.439Z,12.20
2018-07-26T23:58:18.791Z,10.60
